Terminal Aerodrome Forecast
Issued by NWS

Home | Current Version | Previous Version | Text Only | Print | Product List | Glossary On
Versions: 1 2 3 4 5 6 7 8 9 10 11 12 13 14 15 16 17 18 19 20 21 22 23
000
FTUS41 KPBZ 051151
TAFAGC
TAF
KAGC 051151Z 0512/0612 VRB04KT 4SM BR VCSH BKN009
     FM051230 VRB04KT 4SM -SHRA BR OVC009
      TEMPO 0513/0515 2SM -SHRA BR BKN005
     FM051600 35007KT P6SM VCSH OVC025
     FM060700 35006KT P6SM VCSH BKN015=

USA.gov is the U.S. government's official web portal to all federal, state and local government web resources and services.